createdAt,value
2023-04-12T00:01:59.587Z,9.90
2023-04-12T00:04:29.034Z,7.90
2023-04-12T00:06:57.940Z,8.20
2023-04-12T00:09:30.754Z,8.70
2023-04-12T00:11:59.703Z,5.90
2023-04-12T00:14:27.769Z,4.40
2023-04-12T00:16:55.673Z,5.50
2023-04-12T00:19:27.584Z,5.90
2023-04-12T00:21:55.368Z,4.50
2023-04-12T00:24:23.341Z,4.30
2023-04-12T00:26:51.199Z,5.10
2023-04-12T00:29:19.131Z,6.00
2023-04-12T00:34:15.999Z,3.00
2023-04-12T00:36:46.102Z,4.20
2023-04-12T00:39:13.893Z,4.80
2023-04-12T00:41:41.636Z,3.70
2023-04-12T00:44:10.154Z,3.80
2023-04-12T00:46:38.319Z,5.00
2023-04-12T00:49:07.275Z,5.20
2023-04-12T00:51:35.018Z,5.60
2023-04-12T00:54:02.744Z,4.50
2023-04-12T00:56:31.927Z,4.90
2023-04-12T00:59:00.480Z,4.30
2023-04-12T01:01:28.412Z,4.70
2023-04-12T01:04:01.326Z,5.70
2023-04-12T01:06:46.683Z,4.60
2023-04-12T01:09:53.111Z,5.00
2023-04-12T01:12:29.894Z,7.00
2023-04-12T01:15:06.681Z,5.50
2023-04-12T01:17:43.177Z,6.50
2023-04-12T01:20:21.723Z,6.30
2023-04-12T01:23:19.295Z,8.50
2023-04-12T01:26:00.431Z,9.40
2023-04-12T01:28:34.666Z,8.30
2023-04-12T01:31:03.893Z,9.20
2023-04-12T01:33:34.131Z,10.30
2023-04-12T01:36:07.787Z,9.20
2023-04-12T01:38:35.979Z,11.00
2023-04-12T01:41:04.526Z,9.40
2023-04-12T01:43:32.207Z,9.60
2023-04-12T01:46:01.132Z,9.50
2023-04-12T01:48:28.950Z,10.50
2023-04-12T01:51:18.551Z,9.80
2023-04-12T01:53:54.939Z,11.60
2023-04-12T01:56:24.687Z,11.30
2023-04-12T01:58:55.106Z,13.40
2023-04-12T02:01:23.968Z,14.00
2023-04-12T02:03:52.583Z,12.20
2023-04-12T02:06:21.029Z,13.90
2023-04-12T02:08:49.322Z,8.70
2023-04-12T02:11:17.743Z,12.10
2023-04-12T02:13:46.317Z,13.20
2023-04-12T02:16:14.398Z,13.80
2023-04-12T02:18:42.474Z,11.50
2023-04-12T02:21:11.143Z,14.10
2023-04-12T02:23:38.859Z,11.80
2023-04-12T02:26:07.646Z,13.20
2023-04-12T02:28:37.312Z,12.30
2023-04-12T02:31:08.557Z,8.20
2023-04-12T02:33:36.788Z,14.30
2023-04-12T02:36:10.250Z,13.80
2023-04-12T02:38:38.199Z,15.30
2023-04-12T02:41:07.011Z,12.50
2023-04-12T02:43:35.100Z,13.00
2023-04-12T02:46:05.821Z,14.00
2023-04-12T02:48:40.124Z,13.40
2023-04-12T02:51:08.437Z,12.60
2023-04-12T02:53:36.422Z,16.50
2023-04-12T02:56:13.000Z,13.70
2023-04-12T02:58:41.095Z,12.30
2023-04-12T03:01:13.209Z,12.20
2023-04-12T03:03:55.566Z,14.30
2023-04-12T03:06:35.996Z,13.70
2023-04-12T03:09:04.490Z,12.40
2023-04-12T03:11:32.333Z,11.60
2023-04-12T03:14:00.150Z,11.90
2023-04-12T03:16:29.845Z,11.40
2023-04-12T03:19:06.758Z,11.00
2023-04-12T03:21:35.708Z,15.60
2023-04-12T03:24:04.548Z,11.10
2023-04-12T03:26:34.435Z,11.40
2023-04-12T03:29:12.708Z,11.50
2023-04-12T03:31:41.666Z,10.60
2023-04-12T03:34:10.541Z,10.80
2023-04-12T03:36:42.066Z,11.90
2023-04-12T03:39:17.524Z,10.70
2023-04-12T03:41:46.583Z,11.90
2023-04-12T03:44:14.482Z,11.10
2023-04-12T03:46:42.800Z,12.30
2023-04-12T03:49:12.290Z,12.60
2023-04-12T03:51:43.667Z,12.20
2023-04-12T03:54:13.198Z,12.10
2023-04-12T03:56:57.741Z,10.10
2023-04-12T03:59:30.008Z,12.40
2023-04-12T04:01:58.970Z,9.80
2023-04-12T04:04:27.987Z,12.20
2023-04-12T04:06:57.709Z,9.40
2023-04-12T04:09:26.173Z,9.20
2023-04-12T04:11:53.888Z,10.10
2023-04-12T04:14:22.252Z,12.20
2023-04-12T04:16:50.564Z,10.90
2023-04-12T04:19:18.966Z,12.10
2023-04-12T04:21:47.955Z,13.20
2023-04-12T04:24:19.032Z,11.20
2023-04-12T04:26:50.301Z,14.40
2023-04-12T04:29:25.692Z,11.20
2023-04-12T04:31:54.933Z,12.00
2023-04-12T04:34:23.631Z,12.20
2023-04-12T04:36:55.104Z,13.60
2023-04-12T04:39:27.242Z,13.30
2023-04-12T04:41:57.480Z,10.40
2023-04-12T04:44:35.816Z,10.00
2023-04-12T04:47:05.204Z,12.70
2023-04-12T04:49:33.938Z,13.60
2023-04-12T04:52:28.111Z,10.20
2023-04-12T04:55:01.047Z,12.10
2023-04-12T04:57:34.231Z,9.70
2023-04-12T05:00:02.536Z,10.30
2023-04-12T05:02:31.787Z,13.60
2023-04-12T05:05:00.160Z,14.00
2023-04-12T05:07:29.384Z,10.50
2023-04-12T05:09:57.117Z,12.70
2023-04-12T05:12:24.897Z,11.60
2023-04-12T05:15:08.553Z,11.80
2023-04-12T05:17:39.476Z,11.20
2023-04-12T05:20:08.748Z,11.50
2023-04-12T05:22:36.657Z,10.30
2023-04-12T05:25:05.319Z,12.40
2023-04-12T05:27:35.651Z,12.10
2023-04-12T05:30:05.287Z,13.90
2023-04-12T05:32:33.058Z,12.80
2023-04-12T05:35:00.979Z,11.30
2023-04-12T05:37:29.591Z,13.00
2023-04-12T05:39:57.645Z,12.20
2023-04-12T05:42:25.487Z,11.10
2023-04-12T05:44:55.060Z,16.90
2023-04-12T05:47:22.980Z,14.30
2023-04-12T05:49:51.017Z,11.70
2023-04-12T05:52:19.106Z,16.60
2023-04-12T05:54:47.164Z,15.50
2023-04-12T05:57:17.690Z,19.10
2023-04-12T05:59:48.005Z,15.30
2023-04-12T06:02:15.945Z,11.80
2023-04-12T06:04:50.719Z,11.90
2023-04-12T06:07:21.261Z,17.50
2023-04-12T06:09:49.901Z,7.00
2023-04-12T06:12:18.126Z,12.40
2023-04-12T06:14:45.909Z,9.60
2023-04-12T06:17:13.778Z,9.50
2023-04-12T06:19:41.757Z,8.90
2023-04-12T06:22:10.868Z,11.80
2023-04-12T06:24:40.601Z,11.30
2023-04-12T06:27:09.211Z,12.80
2023-04-12T06:29:36.991Z,9.90
2023-04-12T06:32:05.045Z,11.40
2023-04-12T06:34:34.751Z,11.10
2023-04-12T06:37:05.766Z,11.00
2023-04-12T06:39:33.541Z,10.50
2023-04-12T06:42:01.801Z,9.70
2023-04-12T06:44:30.229Z,10.30
2023-04-12T06:46:58.038Z,13.20
2023-04-12T06:49:25.944Z,11.90
2023-04-12T06:51:53.707Z,8.50
2023-04-12T06:54:21.601Z,12.10
2023-04-12T06:56:49.558Z,7.60
2023-04-12T06:59:17.736Z,12.70
2023-04-12T07:01:45.764Z,10.50
2023-04-12T07:04:13.769Z,8.60
2023-04-12T07:06:42.623Z,8.40
2023-04-12T07:09:10.512Z,11.40
2023-04-12T07:11:38.542Z,11.10
2023-04-12T07:14:06.379Z,10.20
2023-04-12T07:16:34.280Z,11.20
2023-04-12T07:19:02.060Z,11.50
2023-04-12T07:21:30.010Z,10.60
2023-04-12T07:23:57.711Z,12.90
2023-04-12T07:26:26.107Z,8.50
2023-04-12T07:28:54.958Z,11.80
2023-04-12T07:31:23.999Z,11.90
2023-04-12T07:33:51.959Z,11.10
2023-04-12T07:36:21.439Z,10.80
2023-04-12T07:38:54.942Z,13.00
2023-04-12T07:41:23.034Z,10.90
2023-04-12T07:43:51.270Z,11.00
2023-04-12T07:46:19.099Z,10.60
2023-04-12T07:48:46.936Z,6.80
2023-04-12T07:51:14.796Z,11.20
2023-04-12T07:53:42.615Z,11.00
2023-04-12T07:56:10.503Z,10.60
2023-04-12T07:58:38.563Z,9.10
2023-04-12T08:01:07.330Z,11.80
2023-04-12T08:03:35.326Z,9.20
2023-04-12T08:06:03.504Z,12.20
2023-04-12T08:08:31.542Z,8.90
2023-04-12T08:11:02.713Z,11.70
2023-04-12T08:13:30.735Z,10.90
2023-04-12T08:15:58.542Z,10.30
2023-04-12T08:18:26.659Z,11.30
2023-04-12T08:20:55.320Z,8.20
2023-04-12T08:23:23.407Z,8.20
2023-04-12T08:25:51.596Z,9.80
2023-04-12T08:28:20.558Z,11.60
2023-04-12T08:30:48.415Z,11.50
2023-04-12T08:33:17.266Z,9.10
2023-04-12T08:35:45.001Z,10.80
2023-04-12T08:38:12.728Z,9.10
2023-04-12T08:40:43.222Z,8.80
2023-04-12T08:43:12.275Z,9.20
2023-04-12T08:45:40.919Z,10.30
2023-04-12T08:48:09.255Z,10.50
2023-04-12T08:50:37.051Z,9.30
2023-04-12T08:53:04.856Z,8.90
2023-04-12T08:55:33.464Z,7.90
2023-04-12T08:58:07.216Z,9.80
2023-04-12T09:00:37.252Z,11.50
2023-04-12T09:03:05.665Z,11.60
2023-04-12T09:05:33.611Z,10.30
2023-04-12T09:08:02.708Z,12.40
2023-04-12T09:10:32.637Z,7.60
2023-04-12T09:13:01.286Z,8.90
2023-04-12T09:15:30.378Z,11.10
2023-04-12T09:18:09.269Z,10.70
2023-04-12T09:20:38.248Z,10.50
2023-04-12T09:23:24.719Z,9.40
2023-04-12T09:25:53.637Z,8.90
2023-04-12T09:28:29.953Z,7.30
2023-04-12T09:30:59.539Z,11.60
2023-04-12T09:33:38.304Z,10.10
2023-04-12T09:36:09.384Z,9.10
2023-04-12T09:38:39.507Z,9.90
2023-04-12T09:41:30.892Z,7.10
2023-04-12T09:44:00.090Z,8.90
2023-04-12T09:46:28.533Z,7.90
2023-04-12T09:49:03.204Z,8.60
2023-04-12T09:51:33.515Z,9.50
2023-04-12T09:54:04.007Z,9.80
2023-04-12T09:56:36.711Z,7.40
2023-04-12T09:59:07.549Z,7.70
2023-04-12T10:01:41.230Z,6.70
2023-04-12T10:04:09.929Z,7.20
2023-04-12T10:06:39.190Z,7.50
2023-04-12T10:09:08.967Z,10.80
2023-04-12T10:11:38.181Z,7.70
2023-04-12T10:14:06.987Z,7.90
2023-04-12T10:16:35.075Z,6.60
2023-04-12T10:19:04.129Z,9.60
2023-04-12T10:21:32.348Z,8.50
2023-04-12T10:24:00.961Z,5.60
2023-04-12T10:26:28.983Z,8.20
2023-04-12T10:29:25.287Z,8.10
2023-04-12T10:31:57.487Z,7.00
2023-04-12T10:34:31.740Z,11.00
2023-04-12T10:37:01.529Z,9.20
2023-04-12T10:39:47.670Z,7.80
2023-04-12T10:42:28.606Z,11.10
2023-04-12T10:45:35.312Z,7.40
2023-04-12T10:48:04.650Z,9.40
2023-04-12T10:50:34.072Z,6.30
2023-04-12T10:53:10.045Z,7.80
2023-04-12T10:55:38.569Z,10.50
2023-04-12T10:58:06.595Z,8.40
2023-04-12T11:00:56.521Z,10.00
2023-04-12T11:03:27.027Z,8.20
2023-04-12T11:06:16.190Z,11.70
2023-04-12T11:09:34.130Z,9.40
2023-04-12T11:12:04.874Z,9.30
2023-04-12T11:14:49.485Z,7.30
2023-04-12T11:17:18.277Z,8.40
2023-04-12T11:19:46.278Z,6.80
2023-04-12T11:22:17.155Z,8.20
2023-04-12T11:24:49.958Z,8.50
2023-04-12T11:27:23.819Z,11.90
2023-04-12T11:29:59.965Z,9.20
2023-04-12T11:32:29.997Z,9.30
2023-04-12T11:34:58.762Z,10.00
2023-04-12T11:37:31.384Z,8.20
2023-04-12T11:40:00.114Z,8.10
2023-04-12T11:42:29.501Z,9.70
2023-04-12T11:45:02.479Z,9.50
2023-04-12T11:47:36.085Z,7.60
2023-04-12T11:50:04.217Z,11.00
2023-04-12T11:52:33.523Z,7.90
2023-04-12T11:55:06.649Z,9.60
2023-04-12T11:57:35.473Z,9.80
2023-04-12T12:00:06.747Z,8.30
2023-04-12T12:02:49.366Z,8.00
2023-04-12T12:05:29.974Z,8.60
2023-04-12T12:10:41.641Z,9.20
2023-04-12T12:13:14.406Z,7.50
2023-04-12T12:15:47.781Z,11.10
2023-04-12T12:18:15.739Z,9.40
2023-04-12T12:20:51.408Z,7.20
2023-04-12T12:23:32.838Z,9.00
2023-04-12T12:26:18.310Z,7.70
2023-04-12T12:28:55.347Z,8.90
2023-04-12T12:31:26.274Z,7.50
2023-04-12T12:33:56.917Z,7.50
2023-04-12T12:36:32.799Z,7.90
2023-04-12T12:39:07.395Z,7.10
2023-04-12T12:41:36.436Z,7.40
2023-04-12T12:44:05.207Z,11.40
2023-04-12T12:46:50.697Z,9.40
2023-04-12T12:49:21.106Z,9.80
2023-04-12T12:51:51.181Z,8.40
2023-04-12T12:54:32.133Z,9.00
2023-04-12T12:57:06.786Z,8.10
2023-04-12T12:59:35.031Z,8.30
2023-04-12T13:02:03.092Z,8.10
2023-04-12T13:04:31.383Z,7.70
2023-04-12T13:06:59.408Z,9.50
2023-04-12T13:09:27.125Z,8.40
2023-04-12T13:11:54.855Z,9.50
2023-04-12T13:14:22.647Z,10.70
2023-04-12T13:16:50.411Z,8.00
2023-04-12T13:19:18.478Z,9.00
2023-04-12T13:21:47.451Z,9.20
2023-04-12T13:24:15.454Z,8.20
2023-04-12T13:26:43.381Z,8.20
2023-04-12T13:29:11.154Z,7.90
2023-04-12T13:31:39.204Z,10.40
2023-04-12T13:34:07.127Z,7.80
2023-04-12T13:36:35.255Z,10.80
2023-04-12T13:39:03.102Z,16.50
2023-04-12T13:41:32.908Z,8.10
2023-04-12T13:44:01.415Z,10.10
2023-04-12T13:46:29.378Z,9.30
2023-04-12T13:48:57.972Z,6.60
2023-04-12T13:51:28.827Z,8.10
2023-04-12T13:53:56.588Z,7.40
2023-04-12T13:56:24.807Z,8.60
2023-04-12T13:58:52.535Z,7.70
2023-04-12T14:01:23.711Z,8.00
2023-04-12T14:03:53.692Z,7.50
2023-04-12T14:06:23.076Z,8.40
2023-04-12T14:08:51.385Z,8.20
2023-04-12T14:11:19.098Z,7.80
2023-04-12T14:13:46.785Z,9.80
2023-04-12T14:16:15.082Z,9.00
2023-04-12T14:18:44.771Z,8.90
2023-04-12T14:21:12.805Z,8.20
2023-04-12T14:23:41.475Z,9.00
2023-04-12T14:26:15.809Z,10.20
2023-04-12T14:28:43.565Z,12.30
2023-04-12T14:31:11.887Z,7.90
2023-04-12T14:33:39.681Z,9.70
2023-04-12T14:36:08.471Z,14.50
2023-04-12T14:38:36.640Z,10.70
2023-04-12T14:41:12.490Z,7.90
2023-04-12T14:43:40.523Z,8.30
2023-04-12T14:46:08.803Z,7.50
2023-04-12T14:48:36.786Z,10.00
2023-04-12T14:51:04.754Z,7.90
2023-04-12T14:53:32.941Z,7.70
2023-04-12T14:56:02.489Z,8.20
2023-04-12T14:58:30.737Z,8.80
2023-04-12T15:01:00.316Z,14.10
2023-04-12T15:03:32.165Z,9.80
2023-04-12T15:06:00.047Z,8.10
2023-04-12T15:08:29.061Z,8.80
2023-04-12T15:10:57.002Z,8.20
2023-04-12T15:13:29.851Z,10.20
2023-04-12T15:15:59.774Z,12.80
2023-04-12T15:18:27.511Z,7.80
2023-04-12T15:20:59.881Z,8.90
2023-04-12T15:23:27.643Z,8.40
2023-04-12T15:26:02.628Z,9.10
2023-04-12T15:28:32.810Z,7.40
2023-04-12T15:31:01.332Z,8.90
2023-04-12T15:33:30.304Z,7.80
2023-04-12T15:36:01.097Z,16.70
2023-04-12T15:38:30.052Z,8.50
2023-04-12T15:41:00.865Z,11.10
2023-04-12T15:43:29.249Z,9.40
2023-04-12T15:45:57.341Z,8.90
2023-04-12T15:48:25.709Z,9.70
2023-04-12T15:50:55.935Z,8.30
2023-04-12T15:53:27.188Z,9.40
2023-04-12T15:55:55.567Z,8.30
2023-04-12T15:58:24.602Z,8.20
2023-04-12T16:00:54.514Z,7.40
2023-04-12T16:03:26.516Z,6.70
2023-04-12T16:05:55.003Z,9.30
2023-04-12T16:08:23.349Z,7.70
2023-04-12T16:10:51.148Z,10.00
2023-04-12T16:13:19.512Z,9.20
2023-04-12T16:15:47.639Z,10.10
2023-04-12T16:18:17.131Z,7.00
2023-04-12T16:23:13.481Z,9.20
2023-04-12T16:25:41.249Z,6.40
2023-04-12T16:28:09.080Z,6.60
2023-04-12T16:30:37.802Z,6.70
2023-04-12T16:33:05.955Z,9.30
2023-04-12T16:35:34.395Z,9.30
2023-04-12T16:38:02.234Z,8.00
2023-04-12T16:40:30.181Z,9.20
2023-04-12T16:42:58.278Z,9.40
2023-04-12T16:45:26.197Z,6.80
2023-04-12T16:47:54.942Z,8.30
2023-04-12T16:50:24.309Z,8.40
2023-04-12T16:52:53.191Z,7.60
2023-04-12T16:55:21.537Z,8.90
2023-04-12T16:57:53.189Z,9.80
2023-04-12T17:00:22.679Z,10.80
2023-04-12T17:02:52.482Z,7.60
2023-04-12T17:05:22.560Z,7.70
2023-04-12T17:07:52.729Z,7.50
2023-04-12T17:10:22.108Z,9.00
2023-04-12T17:12:54.639Z,6.60
2023-04-12T17:15:23.463Z,6.80
2023-04-12T17:17:53.554Z,7.60
2023-04-12T17:20:23.035Z,8.10
2023-04-12T17:22:53.234Z,7.40
2023-04-12T17:25:22.372Z,6.10
2023-04-12T17:27:52.678Z,6.70
2023-04-12T17:30:20.677Z,6.90
2023-04-12T17:32:48.838Z,5.80
2023-04-12T17:35:18.523Z,6.90
2023-04-12T17:37:47.166Z,5.90
2023-04-12T17:40:15.531Z,7.70
2023-04-12T17:42:44.621Z,5.90
2023-04-12T17:47:42.840Z,9.40
2023-04-12T17:50:12.210Z,12.70
2023-04-12T17:52:40.492Z,7.90
2023-04-12T17:55:09.344Z,8.80
2023-04-12T17:57:37.684Z,7.90
2023-04-12T18:00:09.819Z,8.50
2023-04-12T18:02:41.426Z,8.50
2023-04-12T18:05:09.764Z,10.00
2023-04-12T18:07:39.853Z,10.00
2023-04-12T18:10:08.899Z,11.50
2023-04-12T18:12:38.666Z,15.10
2023-04-12T18:15:08.465Z,17.70
2023-04-12T18:17:37.020Z,15.50
2023-04-12T18:20:10.153Z,15.80
2023-04-12T18:22:38.699Z,12.60
2023-04-12T18:25:12.364Z,12.10
2023-04-12T18:27:40.335Z,13.90
2023-04-12T18:30:09.399Z,10.80
2023-04-12T18:32:37.540Z,11.00
2023-04-12T18:35:06.562Z,13.50
2023-04-12T18:37:34.584Z,30.40
2023-04-12T18:40:05.962Z,27.00
2023-04-12T18:42:34.851Z,15.50
2023-04-12T18:45:03.382Z,20.90
2023-04-12T18:52:51.790Z,11.40
2023-04-12T18:55:20.628Z,40.60
2023-04-12T18:57:49.352Z,50.40
2023-04-12T19:00:18.504Z,34.30
2023-04-12T19:02:46.700Z,89.70
2023-04-12T19:05:15.460Z,100.80
2023-04-12T19:07:43.457Z,50.60
2023-04-12T19:10:12.629Z,26.50
2023-04-12T19:12:40.977Z,30.00
2023-04-12T19:15:10.567Z,28.00
2023-04-12T19:17:39.571Z,27.50
2023-04-12T19:22:37.315Z,22.40
2023-04-12T19:25:07.224Z,26.10
2023-04-12T19:27:36.931Z,22.70
2023-04-12T19:30:05.471Z,24.20
2023-04-12T19:32:33.228Z,19.60
2023-04-12T19:35:01.197Z,15.60
2023-04-12T19:37:33.795Z,16.70
2023-04-12T19:40:01.935Z,16.10
2023-04-12T19:42:29.679Z,17.20
2023-04-12T19:44:57.475Z,13.10
2023-04-12T19:47:26.088Z,15.60
2023-04-12T19:49:54.216Z,19.50
2023-04-12T19:52:23.234Z,14.20
2023-04-12T19:54:52.632Z,15.90
2023-04-12T19:57:21.497Z,12.90
2023-04-12T19:59:51.072Z,14.20
2023-04-12T20:02:20.304Z,13.10
2023-04-12T20:04:48.246Z,15.60
2023-04-12T20:07:16.046Z,17.10
2023-04-12T20:09:45.382Z,16.50
2023-04-12T20:12:13.612Z,16.90
2023-04-12T20:14:41.403Z,18.10
2023-04-12T20:17:10.323Z,16.50
2023-04-12T20:19:38.140Z,14.50
2023-04-12T20:22:07.286Z,15.30
2023-04-12T20:24:37.582Z,16.30
2023-04-12T20:27:05.430Z,15.50
2023-04-12T20:29:34.785Z,18.50
2023-04-12T20:32:04.542Z,16.20
2023-04-12T20:34:32.252Z,15.00
2023-04-12T20:37:00.058Z,16.00
2023-04-12T20:39:29.580Z,18.70
2023-04-12T20:42:01.132Z,19.20
2023-04-12T20:44:29.565Z,17.40
2023-04-12T20:47:00.492Z,16.70
2023-04-12T20:49:31.113Z,18.00
2023-04-12T20:52:00.148Z,16.80
2023-04-12T20:54:33.848Z,17.80
2023-04-12T20:57:04.242Z,15.40
2023-04-12T20:59:33.403Z,18.30
2023-04-12T21:02:01.156Z,19.90
2023-04-12T21:04:29.352Z,20.30
2023-04-12T21:06:57.493Z,20.80
2023-04-12T21:09:25.186Z,20.80
2023-04-12T21:11:53.409Z,17.50
2023-04-12T21:14:21.141Z,16.50
2023-04-12T21:16:48.873Z,17.90
2023-04-12T21:19:18.187Z,17.90
2023-04-12T21:21:46.297Z,20.90
2023-04-12T21:24:13.978Z,17.80
2023-04-12T21:26:42.652Z,18.00
2023-04-12T21:29:11.573Z,20.50
2023-04-12T21:31:41.695Z,16.50
2023-04-12T21:34:10.275Z,19.20
2023-04-12T21:36:38.755Z,20.20
2023-04-12T21:39:06.516Z,16.20
2023-04-12T21:41:34.552Z,16.10
2023-04-12T21:44:02.216Z,15.80
2023-04-12T21:46:29.932Z,16.10
2023-04-12T21:48:57.729Z,16.30
2023-04-12T21:51:26.449Z,18.40
2023-04-12T21:53:54.157Z,15.90
2023-04-12T21:56:21.926Z,16.20
2023-04-12T21:58:50.075Z,16.20
2023-04-12T22:01:17.875Z,18.00
2023-04-12T22:03:45.653Z,15.50
2023-04-12T22:06:13.467Z,17.30
2023-04-12T22:08:44.253Z,15.40
2023-04-12T22:11:12.203Z,13.70
2023-04-12T22:13:41.846Z,15.10
2023-04-12T22:16:13.928Z,16.00
2023-04-12T22:18:45.746Z,16.20
2023-04-12T22:21:13.419Z,17.10
2023-04-12T22:23:41.492Z,15.40
2023-04-12T22:26:11.611Z,17.20
2023-04-12T22:28:39.512Z,14.40
2023-04-12T22:31:08.608Z,13.40
2023-04-12T22:33:40.201Z,19.90
2023-04-12T22:36:08.546Z,16.70
2023-04-12T22:38:38.283Z,14.90
2023-04-12T22:43:42.635Z,14.50
2023-04-12T22:46:17.036Z,20.00
2023-04-12T22:48:47.696Z,19.90
2023-04-12T22:51:15.769Z,19.50
2023-04-12T22:53:43.697Z,18.50
2023-04-12T22:56:11.933Z,18.00
2023-04-12T22:58:40.702Z,18.80
2023-04-12T23:01:10.935Z,17.50
2023-04-12T23:03:41.730Z,17.30
2023-04-12T23:06:12.835Z,16.10
2023-04-12T23:08:40.786Z,17.30
2023-04-12T23:11:08.623Z,19.40
2023-04-12T23:13:37.003Z,23.80
2023-04-12T23:16:07.847Z,19.10
2023-04-12T23:18:35.967Z,22.20
2023-04-12T23:21:03.751Z,19.90
2023-04-12T23:23:31.767Z,15.50
2023-04-12T23:25:59.480Z,16.90
2023-04-12T23:28:28.459Z,18.20
2023-04-12T23:30:59.077Z,21.70
2023-04-12T23:36:02.730Z,17.70
2023-04-12T23:41:08.963Z,15.40
2023-04-12T23:43:37.397Z,16.90
2023-04-12T23:46:05.731Z,18.80
2023-04-12T23:48:33.838Z,14.50
2023-04-12T23:51:01.786Z,17.20
2023-04-12T23:53:29.468Z,17.10
2023-04-12T23:55:57.212Z,18.50
2023-04-12T23:58:27.491Z,15.50
